Time;durP1;ratioP1;P1;durP2;ratioP2;P2;SDS_P1;SDS_P2;PMS_P1;PMS_P2;Temp;Humidity;BMP_temperature;BMP_pressure;BME280_temperature;BME280_humidity;BME280_pressure;Samples;Min_cycle;Max_cycle;Signal;HPM_P1;HPM_P2
2021/10/02 00:35:15;;;;;;;4.40;4.00;;;11.20;1.00;;;;;;5108155;27;20467;-82
2021/10/02 00:37:50;;;;;;;5.70;3.70;;;11.10;1.00;;;;;;5089963;27;20538;-82
2021/10/02 00:45:51;;;;;;;6.40;3.77;;;11.00;1.00;;;;;;5115039;27;20436;-83
2021/10/02 00:48:18;;;;;;;5.43;4.40;;;11.10;1.00;;;;;;5115244;27;20434;-83
2021/10/02 00:50:45;;;;;;;5.67;3.97;;;11.10;1.00;;;;;;5146022;27;20443;-82
2021/10/02 00:53:13;;;;;;;5.33;4.40;;;11.10;1.00;;;;;;5144108;27;20454;-83
2021/10/02 00:55:39;;;;;;;5.33;4.17;;;11.10;1.00;;;;;;5134398;27;20504;-83
2021/10/02 00:58:08;;;;;;;6.50;4.10;;;11.10;1.00;;;;;;5119778;27;20447;-84
2021/10/02 01:00:35;;;;;;;5.77;4.20;;;11.10;1.00;;;;;;5117052;27;20437;-82
2021/10/02 01:03:12;;;;;;;7.47;3.93;;;11.10;1.00;;;;;;5095883;27;20463;-81
2021/10/02 01:06:03;;;;;;;4.53;4.13;;;11.10;1.00;;;;;;5102121;27;20439;-84
2021/10/02 01:08:37;;;;;;;6.00;4.20;;;11.10;1.00;;;;;;5111823;27;20471;-84
2021/10/02 01:11:19;;;;;;;5.00;4.20;;;11.10;1.00;;;;;;5100667;27;20431;-84
2021/10/02 01:13:59;;;;;;;4.50;4.03;;;11.00;1.00;;;;;;5116884;27;20483;-83
2021/10/02 01:16:30;;;;;;;5.10;4.60;;;11.00;1.00;;;;;;5122926;27;20522;-83
2021/10/02 01:19:21;;;;;;;5.33;4.27;;;11.00;1.00;;;;;;5119031;27;21181;-83
2021/10/02 01:21:58;;;;;;;5.57;4.23;;;10.90;1.00;;;;;;5116359;27;20413;-82
2021/10/02 01:24:36;;;;;;;4.77;4.30;;;10.90;1.00;;;;;;5112124;27;20560;-83
2021/10/02 01:27:23;;;;;;;9.40;4.90;;;10.90;1.00;;;;;;5112143;27;20419;-83
2021/10/02 01:29:53;;;;;;;6.03;4.07;;;10.90;1.00;;;;;;5115023;27;20467;-83
2021/10/02 01:32:29;;;;;;;6.80;5.40;;;10.90;1.00;;;;;;5109739;27;20501;-82
2021/10/02 01:35:11;;;;;;;5.83;5.30;;;10.80;1.00;;;;;;5094586;27;20443;-83
2021/10/02 01:37:57;;;;;;;6.70;5.00;;;10.80;1.00;;;;;;5114707;27;20520;-83
2021/10/02 01:48:48;;;;;;;5.10;4.60;;;10.80;1.00;;;;;;5110091;27;21574;-82
2021/10/02 01:51:16;;;;;;;5.07;4.63;;;10.80;1.00;;;;;;5118219;27;20479;-83
2021/10/02 01:53:45;;;;;;;6.73;4.73;;;10.80;1.00;;;;;;5109634;27;20440;-82
2021/10/02 01:56:17;;;;;;;6.90;5.60;;;10.80;1.00;;;;;;5148736;27;20492;-82
2021/10/02 01:58:46;;;;;;;5.13;4.63;;;10.80;1.00;;;;;;5146593;27;20441;-82
2021/10/02 02:01:18;;;;;;;5.70;4.97;;;10.70;1.00;;;;;;5138555;27;20469;-82
2021/10/02 02:03:47;;;;;;;5.43;4.90;;;10.70;1.00;;;;;;5123549;27;20804;-82
2021/10/02 02:06:16;;;;;;;5.50;4.60;;;10.80;1.00;;;;;;5106903;27;21733;-83
2021/10/02 02:08:43;;;;;;;6.10;4.50;;;10.80;1.00;;;;;;5104611;27;20463;-82
2021/10/02 02:11:11;;;;;;;5.00;4.60;;;10.70;1.00;;;;;;5114523;27;21742;-82
2021/10/02 02:13:41;;;;;;;5.70;5.20;;;10.70;1.00;;;;;;5112704;27;20456;-85
2021/10/02 02:16:08;;;;;;;6.23;5.53;;;10.70;1.00;;;;;;5113465;27;20445;-83
2021/10/02 02:18:36;;;;;;;5.53;4.70;;;10.70;1.00;;;;;;5111335;27;20456;-82
2021/10/02 02:21:08;;;;;;;5.37;4.80;;;10.70;1.00;;;;;;5113834;27;20470;-83
2021/10/02 02:23:35;;;;;;;16.17;14.67;;;10.70;1.00;;;;;;5118230;27;20427;-82
2021/10/02 02:26:05;;;;;;;7.00;5.40;;;10.70;1.00;;;;;;5116970;27;20548;-83
2021/10/02 02:28:32;;;;;;;9.90;7.20;;;10.70;1.00;;;;;;5115128;27;20468;-83
2021/10/02 02:31:00;;;;;;;5.47;4.97;;;10.70;1.00;;;;;;5113969;27;21037;-83
2021/10/02 02:33:26;;;;;;;9.53;5.50;;;10.70;1.00;;;;;;5110967;27;21052;-82
2021/10/02 02:35:54;;;;;;;5.90;5.30;;;10.70;1.00;;;;;;5112551;27;20467;-83
2021/10/02 02:38:21;;;;;;;5.40;4.87;;;10.70;1.00;;;;;;5112086;27;20456;-82
2021/10/02 02:40:50;;;;;;;5.80;5.23;;;10.60;1.00;;;;;;5114898;27;20887;-82
2021/10/02 02:43:17;;;;;;;6.03;5.53;;;10.70;1.00;;;;;;5106292;27;20919;-83
2021/10/02 02:45:53;;;;;;;8.30;5.60;;;10.60;1.00;;;;;;5115205;27;20463;-82
2021/10/02 02:48:24;;;;;;;6.00;5.30;;;10.60;1.00;;;;;;5118305;27;20472;-82
2021/10/02 02:50:57;;;;;;;5.97;5.37;;;10.60;1.00;;;;;;5127649;27;20461;-82
2021/10/02 02:53:32;;;;;;;8.17;5.97;;;10.60;1.00;;;;;;5126141;27;20437;-82
2021/10/02 02:56:08;;;;;;;6.43;5.13;;;10.60;1.00;;;;;;5129480;27;20446;-83
2021/10/02 02:58:37;;;;;;;6.40;5.90;;;10.70;1.00;;;;;;5148891;27;20409;-82
2021/10/02 03:01:05;;;;;;;6.50;5.90;;;10.70;1.00;;;;;;5113215;27;22591;-83
2021/10/02 03:03:34;;;;;;;7.10;6.10;;;10.60;1.00;;;;;;5110225;27;20463;-83
2021/10/02 03:06:07;;;;;;;6.27;5.67;;;10.60;1.00;;;;;;5098764;27;20710;-82
2021/10/02 03:08:36;;;;;;;11.13;5.43;;;10.60;1.00;;;;;;5107189;27;20451;-83
2021/10/02 03:11:04;;;;;;;6.87;5.70;;;10.60;1.00;;;;;;5095619;27;20515;-84
2021/10/02 03:13:34;;;;;;;7.53;6.80;;;10.60;1.00;;;;;;5116465;27;20452;-84
2021/10/02 03:16:03;;;;;;;6.20;5.60;;;10.60;1.00;;;;;;5114944;27;20917;-84
2021/10/02 03:18:32;;;;;;;7.93;6.50;;;10.70;1.00;;;;;;5114863;27;21071;-83
2021/10/02 03:21:01;;;;;;;6.23;5.63;;;10.70;1.00;;;;;;5117595;27;20565;-84
2021/10/02 03:23:29;;;;;;;5.73;5.23;;;10.70;1.00;;;;;;5114759;27;20452;-84
2021/10/02 03:25:57;;;;;;;6.20;5.60;;;10.70;1.00;;;;;;5114195;27;21302;-83
2021/10/02 03:28:24;;;;;;;6.80;6.00;;;10.70;1.00;;;;;;5111931;27;20478;-82
2021/10/02 03:30:51;;;;;;;8.93;5.70;;;10.70;1.00;;;;;;5110181;27;20453;-85
2021/10/02 03:33:22;;;;;;;6.20;5.60;;;10.70;1.00;;;;;;5111754;27;20599;-83
2021/10/02 03:35:49;;;;;;;5.40;4.90;;;10.70;1.00;;;;;;5110557;27;20449;-82
2021/10/02 03:38:16;;;;;;;7.73;6.17;;;10.70;1.00;;;;;;5108699;27;20615;-84
2021/10/02 03:40:44;;;;;;;6.37;5.67;;;10.80;1.00;;;;;;5105245;27;20496;-83
2021/10/02 03:43:12;;;;;;;6.60;6.00;;;10.80;1.00;;;;;;5115946;27;20444;-82
2021/10/02 03:45:40;;;;;;;7.00;6.40;;;10.90;1.00;;;;;;5113862;27;20459;-82
2021/10/02 03:48:07;;;;;;;7.30;5.87;;;10.80;1.00;;;;;;5114747;27;20441;-84
2021/10/02 03:50:35;;;;;;;10.33;8.53;;;10.90;1.00;;;;;;5105963;27;20463;-83
2021/10/02 03:53:01;;;;;;;6.33;5.73;;;10.90;1.00;;;;;;5094174;27;20450;-84
2021/10/02 03:55:28;;;;;;;6.37;5.80;;;10.90;1.00;;;;;;5121123;27;20416;-83
2021/10/02 03:57:56;;;;;;;6.17;5.67;;;10.90;1.00;;;;;;5127837;27;20469;-84
2021/10/02 04:00:24;;;;;;;6.43;5.87;;;10.90;1.00;;;;;;5138141;27;20511;-83
2021/10/02 04:02:50;;;;;;;7.43;5.60;;;11.00;1.00;;;;;;5136760;27;20460;-82
2021/10/02 04:05:17;;;;;;;9.27;6.07;;;11.00;1.00;;;;;;5137114;27;20566;-82
2021/10/02 04:07:44;;;;;;;7.90;6.03;;;11.00;1.00;;;;;;5124263;27;20447;-83
2021/10/02 04:10:11;;;;;;;6.60;5.90;;;11.10;1.00;;;;;;5124232;27;20469;-81
2021/10/02 04:12:38;;;;;;;6.50;5.90;;;11.10;1.00;;;;;;5126456;27;20926;-80
2021/10/02 04:15:07;;;;;;;7.73;5.90;;;11.10;1.00;;;;;;5106654;27;22016;-81
2021/10/02 04:17:34;;;;;;;6.93;6.23;;;11.10;1.00;;;;;;5108716;27;20481;-82
2021/10/02 04:20:01;;;;;;;7.23;6.53;;;11.10;1.00;;;;;;5108529;27;20438;-82
2021/10/02 04:22:28;;;;;;;7.50;5.93;;;11.10;1.00;;;;;;5121240;27;21192;-84
2021/10/02 04:24:55;;;;;;;6.90;6.13;;;11.10;1.00;;;;;;5123676;27;20544;-82
2021/10/02 04:27:22;;;;;;;6.87;6.20;;;11.00;1.00;;;;;;5116603;27;20556;-83
2021/10/02 04:29:48;;;;;;;6.60;5.93;;;11.00;1.00;;;;;;5100239;27;20461;-83
2021/10/02 04:32:17;;;;;;;9.00;6.13;;;11.10;1.00;;;;;;5118326;27;20519;-81
2021/10/02 04:34:43;;;;;;;6.97;6.27;;;11.10;1.00;;;;;;5107872;27;20457;-83
2021/10/02 04:37:10;;;;;;;6.50;5.90;;;11.00;1.00;;;;;;5106888;27;20457;-82
2021/10/02 04:39:37;;;;;;;7.63;5.70;;;11.10;1.00;;;;;;5116464;27;20547;-80
2021/10/02 04:42:05;;;;;;;7.00;6.30;;;11.10;1.00;;;;;;5118909;27;20522;-81
2021/10/02 04:44:32;;;;;;;7.13;6.30;;;11.10;1.00;;;;;;5131441;27;20448;-81
2021/10/02 04:46:59;;;;;;;8.30;6.27;;;11.10;1.00;;;;;;5133661;27;21144;-82
2021/10/02 04:49:27;;;;;;;7.50;6.80;;;11.10;1.00;;;;;;5139455;27;20563;-81
2021/10/02 04:51:53;;;;;;;6.63;6.03;;;11.10;1.00;;;;;;5155505;27;20448;-81
2021/10/02 04:54:20;;;;;;;7.23;6.53;;;11.00;1.00;;;;;;5150536;27;20443;-81
2021/10/02 04:56:47;;;;;;;7.23;6.63;;;11.00;1.00;;;;;;5136066;27;20556;-82
2021/10/02 04:59:14;;;;;;;7.70;5.83;;;11.00;1.00;;;;;;5132820;27;21374;-82
2021/10/02 05:01:40;;;;;;;7.73;6.13;;;11.00;1.00;;;;;;5117096;27;20464;-82
2021/10/02 05:04:07;;;;;;;7.10;6.50;;;11.00;1.00;;;;;;5134264;27;20460;-82
2021/10/02 05:06:35;;;;;;;6.80;6.00;;;11.00;1.00;;;;;;5131462;27;20467;-82
2021/10/02 05:09:02;;;;;;;7.87;6.50;;;11.10;1.00;;;;;;5125117;27;20464;-84
2021/10/02 05:11:28;;;;;;;7.47;6.20;;;11.10;1.00;;;;;;5125861;27;20891;-82
2021/10/02 05:13:56;;;;;;;6.97;6.33;;;11.10;1.00;;;;;;5122864;27;23222;-82
2021/10/02 05:16:24;;;;;;;6.83;6.10;;;11.10;1.00;;;;;;5128846;27;23137;-82
2021/10/02 05:18:51;;;;;;;8.53;6.57;;;11.10;1.00;;;;;;5122723;27;20490;-82
2021/10/02 05:21:20;;;;;;;6.23;5.70;;;11.10;1.00;;;;;;5123119;27;20443;-82
2021/10/02 05:23:51;;;;;;;7.30;6.43;;;11.10;1.00;;;;;;5112197;27;20483;-82
2021/10/02 05:26:18;;;;;;;10.83;7.73;;;11.10;1.00;;;;;;5116540;27;20439;-82
2021/10/02 05:28:47;;;;;;;7.10;6.37;;;11.10;1.00;;;;;;5117922;27;20928;-82
2021/10/02 05:31:13;;;;;;;7.53;6.83;;;11.10;1.00;;;;;;5123848;27;20945;-82
2021/10/02 05:33:40;;;;;;;7.43;6.73;;;11.10;1.00;;;;;;5114687;27;20418;-82
2021/10/02 05:36:07;;;;;;;7.60;6.90;;;11.10;1.00;;;;;;5122986;27;20460;-82
2021/10/02 05:38:33;;;;;;;7.10;6.40;;;11.20;1.00;;;;;;5115787;27;20562;-83
2021/10/02 05:41:01;;;;;;;7.20;6.50;;;11.20;1.00;;;;;;5116510;27;21188;-80
2021/10/02 05:43:28;;;;;;;7.03;6.33;;;11.20;1.00;;;;;;5120074;27;20470;-81
2021/10/02 05:45:57;;;;;;;7.80;7.00;;;11.30;1.00;;;;;;5120104;27;21676;-82
2021/10/02 05:48:23;;;;;;;7.70;6.90;;;11.30;1.00;;;;;;5122206;27;20891;-82
2021/10/02 05:50:50;;;;;;;10.60;6.70;;;11.30;1.00;;;;;;5124514;27;20494;-82
2021/10/02 05:53:17;;;;;;;10.20;8.03;;;11.30;1.00;;;;;;5124257;27;20445;-81
2021/10/02 05:55:44;;;;;;;7.03;6.33;;;11.40;1.00;;;;;;5146077;27;20845;-81
2021/10/02 05:58:13;;;;;;;7.50;6.80;;;11.40;1.00;;;;;;5141777;27;20465;-81
2021/10/02 06:00:40;;;;;;;7.80;7.10;;;11.50;1.00;;;;;;5126316;27;20510;-81
2021/10/02 06:03:07;;;;;;;10.03;7.00;;;11.50;1.00;;;;;;5119659;27;20429;-81
2021/10/02 06:05:33;;;;;;;7.67;6.93;;;11.60;1.00;;;;;;5121076;27;21275;-82
2021/10/02 06:08:00;;;;;;;7.40;6.67;;;11.60;1.00;;;;;;5119658;27;21250;-82
2021/10/02 06:10:27;;;;;;;7.63;6.53;;;11.60;1.00;;;;;;5107277;27;20515;-82
2021/10/02 06:12:55;;;;;;;9.30;7.47;;;11.60;1.00;;;;;;5119567;27;20880;-83
2021/10/02 06:15:23;;;;;;;7.70;7.00;;;11.70;1.00;;;;;;5113294;27;20887;-81
2021/10/02 06:17:50;;;;;;;8.40;7.60;;;11.60;1.00;;;;;;5104189;27;20452;-81
2021/10/02 06:20:17;;;;;;;7.43;6.63;;;11.70;1.00;;;;;;5108927;27;20451;-81
2021/10/02 06:22:44;;;;;;;8.53;7.53;;;11.70;1.00;;;;;;5116983;27;20910;-81
2021/10/02 06:25:12;;;;;;;13.63;8.83;;;11.70;1.00;;;;;;5120023;27;20467;-81
2021/10/02 06:27:39;;;;;;;8.23;7.43;;;11.70;1.00;;;;;;5117305;27;21605;-82
2021/10/02 06:30:07;;;;;;;10.40;7.67;;;11.80;1.00;;;;;;5120786;27;21253;-82
2021/10/02 06:32:38;;;;;;;9.70;8.67;;;11.80;1.00;;;;;;5094816;27;20499;-81
2021/10/02 06:35:06;;;;;;;11.43;8.03;;;11.80;1.00;;;;;;5110924;27;20417;-81
2021/10/02 06:37:33;;;;;;;11.00;10.00;;;11.80;1.00;;;;;;5097903;27;20434;-81
2021/10/02 06:40:00;;;;;;;8.47;7.57;;;11.90;1.00;;;;;;5114399;27;20456;-83
2021/10/02 06:42:26;;;;;;;8.37;7.53;;;11.90;1.00;;;;;;5098242;27;20485;-80
2021/10/02 06:44:53;;;;;;;11.50;7.77;;;12.00;1.00;;;;;;5105782;27;20448;-79
2021/10/02 06:47:23;;;;;;;8.63;7.83;;;12.00;1.00;;;;;;5115379;27;21113;-81
2021/10/02 06:49:53;;;;;;;8.27;7.47;;;12.10;1.00;;;;;;5114262;27;20455;-82
2021/10/02 06:52:20;;;;;;;9.10;7.60;;;12.10;1.00;;;;;;5123778;27;21419;-80
2021/10/02 06:54:47;;;;;;;7.90;7.07;;;12.20;1.00;;;;;;5117659;27;20587;-79
2021/10/02 06:57:13;;;;;;;8.53;7.10;;;12.20;1.00;;;;;;5133993;27;20524;-78
2021/10/02 06:59:40;;;;;;;12.10;9.63;;;12.20;1.00;;;;;;5144304;27;20472;-78
2021/10/02 07:02:07;;;;;;;9.27;8.33;;;12.30;1.00;;;;;;5123891;27;20452;-80
2021/10/02 07:04:33;;;;;;;8.33;7.37;;;12.30;1.00;;;;;;5111337;27;20457;-81
2021/10/02 07:07:02;;;;;;;12.43;7.67;;;12.30;1.00;;;;;;5117682;27;24222;-78
2021/10/02 07:09:29;;;;;;;8.80;7.87;;;12.40;1.00;;;;;;5115717;27;20436;-79
2021/10/02 07:11:55;;;;;;;8.50;7.60;;;12.40;1.00;;;;;;5121377;27;20411;-78
2021/10/02 07:14:22;;;;;;;8.43;7.60;;;12.50;1.00;;;;;;5109083;27;20440;-78
2021/10/02 07:16:49;;;;;;;11.20;8.50;;;12.60;1.00;;;;;;5110461;27;20482;-80
2021/10/02 07:19:16;;;;;;;9.37;8.40;;;12.70;1.00;;;;;;5121867;27;20456;-79
2021/10/02 07:21:44;;;;;;;10.23;8.60;;;12.70;1.00;;;;;;5122180;27;20523;-81
2021/10/02 07:24:13;;;;;;;8.80;8.10;;;12.80;1.00;;;;;;5120880;27;20429;-80
2021/10/02 07:26:41;;;;;;;7.80;7.10;;;12.80;1.00;;;;;;5113734;27;20672;-76
2021/10/02 07:29:08;;;;;;;8.90;8.00;;;12.90;1.00;;;;;;5104889;27;20417;-76
2021/10/02 07:31:35;;;;;;;9.33;8.40;;;13.00;1.00;;;;;;5107966;27;20513;-74
2021/10/02 07:34:02;;;;;;;8.87;7.97;;;13.20;1.00;;;;;;5105415;27;20514;-76
2021/10/02 07:36:29;;;;;;;9.50;8.60;;;13.40;1.00;;;;;;5105166;27;20465;-75
2021/10/02 07:38:56;;;;;;;10.37;8.73;;;13.60;1.00;;;;;;5112525;27;20464;-75
2021/10/02 07:41:26;;;;;;;7.50;6.90;;;13.70;1.00;;;;;;5108946;27;20449;-76
2021/10/02 07:43:56;;;;;;;6.40;5.80;;;13.80;1.00;;;;;;5111042;27;20471;-76
2021/10/02 07:46:24;;;;;;;6.50;6.00;;;14.00;1.00;;;;;;5114583;27;20572;-77
2021/10/02 07:48:53;;;;;;;7.17;6.10;;;14.10;1.00;;;;;;5116256;27;20449;-77
2021/10/02 07:51:21;;;;;;;7.20;6.43;;;14.30;1.00;;;;;;5107281;27;20424;-76
2021/10/02 07:53:50;;;;;;;6.93;6.23;;;14.40;1.00;;;;;;5118127;27;20461;-77
2021/10/02 07:56:17;;;;;;;8.20;7.40;;;14.50;1.00;;;;;;5113283;27;21242;-76
2021/10/02 07:58:46;;;;;;;7.33;6.63;;;14.60;1.00;;;;;;5112145;27;20495;-76
2021/10/02 08:01:14;;;;;;;6.23;5.73;;;14.70;1.00;;;;;;5112887;27;20426;-77
2021/10/02 08:03:42;;;;;;;6.87;6.17;;;14.70;1.00;;;;;;5107944;27;20457;-77
2021/10/02 08:06:10;;;;;;;6.40;5.90;;;14.80;1.00;;;;;;5116309;27;20453;-77
2021/10/02 08:08:37;;;;;;;6.70;6.03;;;14.90;1.00;;;;;;5095494;27;20467;-76
2021/10/02 08:11:06;;;;;;;6.33;5.70;;;14.80;1.00;;;;;;5102017;27;20861;-76
2021/10/02 08:13:32;;;;;;;6.57;6.00;;;14.80;1.00;;;;;;5104828;27;20449;-76
2021/10/02 08:16:02;;;;;;;6.80;6.20;;;14.80;1.00;;;;;;5109758;27;21410;-76
2021/10/02 08:18:36;;;;;;;6.60;6.00;;;14.70;1.00;;;;;;5107851;27;20896;-76
2021/10/02 08:21:05;;;;;;;6.30;5.70;;;14.70;1.00;;;;;;5111247;27;20498;-77
2021/10/02 08:23:35;;;;;;;6.70;6.10;;;14.80;1.00;;;;;;5113245;27;21217;-77
2021/10/02 08:26:04;;;;;;;7.07;6.37;;;14.90;1.00;;;;;;5089786;27;20601;-76
2021/10/02 08:28:33;;;;;;;6.77;6.13;;;15.10;1.00;;;;;;5111463;27;21887;-76
2021/10/02 08:31:02;;;;;;;10.70;7.73;;;15.20;1.00;;;;;;5108550;27;20452;-76
2021/10/02 08:33:30;;;;;;;6.47;5.87;;;15.40;1.00;;;;;;5113505;27;20452;-76
2021/10/02 08:35:58;;;;;;;8.87;5.03;;;15.50;1.00;;;;;;5109851;27;21110;-76
2021/10/02 08:38:24;;;;;;;6.37;5.77;;;15.60;1.00;;;;;;5111493;27;20469;-76
2021/10/02 08:40:55;;;;;;;7.03;6.33;;;16.10;1.00;;;;;;5100859;27;20540;-76
2021/10/02 08:43:23;;;;;;;7.53;5.17;;;16.60;1.00;;;;;;5109707;27;20502;-77
2021/10/02 08:45:52;;;;;;;5.43;5.03;;;17.20;1.00;;;;;;5111668;27;20463;-76
2021/10/02 08:48:20;;;;;;;5.40;4.90;;;18.10;1.00;;;;;;5113108;27;21238;-75
2021/10/02 08:50:48;;;;;;;5.00;4.50;;;19.00;1.00;;;;;;5114655;27;21294;-76
2021/10/02 08:53:16;;;;;;;8.33;4.57;;;20.10;1.00;;;;;;5111949;27;20448;-77
2021/10/02 08:55:44;;;;;;;4.60;4.20;;;21.40;1.00;;;;;;5115689;27;20479;-76
2021/10/02 08:58:11;;;;;;;4.67;4.27;;;22.50;1.00;;;;;;5120587;27;20445;-76
2021/10/02 09:00:39;;;;;;;4.63;4.00;;;23.30;1.00;;;;;;5115374;27;21439;-77
2021/10/02 09:03:07;;;;;;;5.70;5.20;;;23.80;1.00;;;;;;5113015;27;20456;-76
2021/10/02 09:05:35;;;;;;;4.50;4.10;;;24.50;1.00;;;;;;5113070;27;20473;-76
2021/10/02 09:08:02;;;;;;;4.13;3.80;;;24.90;1.00;;;;;;5110960;27;20461;-76
2021/10/02 09:10:31;;;;;;;4.77;3.90;;;25.10;1.00;;;;;;5111935;27;20541;-78
2021/10/02 09:12:58;;;;;;;3.83;3.40;;;25.80;1.00;;;;;;5116003;27;20456;-77
2021/10/02 09:15:25;;;;;;;4.70;4.00;;;26.60;1.00;;;;;;5117060;27;20459;-77
2021/10/02 09:17:53;;;;;;;4.80;4.30;;;27.40;1.00;;;;;;5115922;27;20502;-77
2021/10/02 09:20:21;;;;;;;5.57;3.90;;;28.10;1.00;;;;;;5112447;27;20486;-77
2021/10/02 09:22:57;;;;;;;6.03;4.30;;;28.60;1.00;;;;;;5110341;27;21067;-77
2021/10/02 09:25:25;;;;;;;5.43;3.77;;;29.30;1.00;;;;;;5118310;27;21157;-77
2021/10/02 09:28:03;;;;;;;5.90;4.10;;;29.70;1.00;;;;;;5112526;27;20429;-77
2021/10/02 09:30:30;;;;;;;2.93;2.43;;;30.00;1.00;;;;;;5111055;27;20471;-76
2021/10/02 09:33:04;;;;;;;3.70;2.60;;;29.80;1.00;;;;;;5117828;27;21062;-77
2021/10/02 09:35:35;;;;;;;4.80;4.30;;;29.80;1.00;;;;;;5126093;27;20515;-76
2021/10/02 09:38:04;;;;;;;3.00;2.80;;;30.20;1.00;;;;;;5130001;27;20432;-76
2021/10/02 09:40:33;;;;;;;3.50;2.63;;;30.10;1.00;;;;;;5133123;27;20447;-76
2021/10/02 09:43:01;;;;;;;4.00;2.50;;;29.60;1.00;;;;;;5130255;27;20471;-76
2021/10/02 09:45:29;;;;;;;6.77;3.90;;;29.60;1.00;;;;;;5137282;27;20527;-76
2021/10/02 09:47:58;;;;;;;4.93;3.20;;;29.50;1.00;;;;;;5134706;27;20415;-76
2021/10/02 09:50:27;;;;;;;3.77;2.40;;;29.70;1.00;;;;;;5128466;27;20458;-77
2021/10/02 09:52:55;;;;;;;4.20;2.57;;;29.60;1.00;;;;;;5125604;27;20461;-76
2021/10/02 09:55:26;;;;;;;4.23;2.80;;;29.10;1.00;;;;;;5125369;27;20456;-77
2021/10/02 09:57:55;;;;;;;3.60;2.60;;;28.80;1.00;;;;;;5123297;27;20451;-77
2021/10/02 10:00:25;;;;;;;3.77;3.00;;;28.40;1.00;;;;;;5118628;27;20457;-78
2021/10/02 10:02:53;;;;;;;3.60;2.70;;;27.50;1.00;;;;;;5102400;27;20487;-77
2021/10/02 10:05:26;;;;;;;6.00;3.63;;;26.70;1.00;;;;;;5119510;27;20475;-77
2021/10/02 10:07:55;;;;;;;2.93;2.60;;;25.90;1.00;;;;;;5115638;27;20513;-77
2021/10/02 10:10:22;;;;;;;5.03;3.20;;;26.20;1.00;;;;;;5118470;27;21884;-78
2021/10/02 10:12:53;;;;;;;4.10;2.90;;;26.60;1.00;;;;;;5120201;27;20445;-78
2021/10/02 10:15:30;;;;;;;3.90;3.00;;;27.50;1.00;;;;;;5118109;27;20548;-78
2021/10/02 10:17:58;;;;;;;3.10;2.80;;;27.70;1.00;;;;;;5115720;27;20449;-77
2021/10/02 10:20:34;;;;;;;3.07;2.40;;;27.90;1.00;;;;;;5124936;27;20443;-78
2021/10/02 10:23:02;;;;;;;4.17;2.50;;;28.80;1.00;;;;;;5119930;27;20443;-78
2021/10/02 10:25:29;;;;;;;3.40;2.63;;;30.00;1.00;;;;;;5117298;27;20598;-77
2021/10/02 10:27:59;;;;;;;3.13;2.30;;;30.70;1.00;;;;;;5123411;27;21046;-78
2021/10/02 10:30:28;;;;;;;8.13;3.00;;;31.20;1.00;;;;;;5115536;27;20465;-77
2021/10/02 10:33:00;;;;;;;2.40;2.20;;;30.50;1.00;;;;;;5119285;27;20454;-78
2021/10/02 10:35:29;;;;;;;2.73;2.20;;;30.00;1.00;;;;;;5116485;27;20462;-76
2021/10/02 10:37:56;;;;;;;4.80;2.40;;;30.60;1.00;;;;;;5117588;27;20466;-77
2021/10/02 10:40:23;;;;;;;2.67;1.80;;;31.60;1.00;;;;;;5119503;27;20667;-77
2021/10/02 10:42:52;;;;;;;3.00;1.77;;;32.90;1.00;;;;;;5117157;27;21313;-78
2021/10/02 10:45:20;;;;;;;4.13;2.10;;;32.40;1.00;;;;;;5116356;27;21219;-78
2021/10/02 10:47:48;;;;;;;2.47;2.10;;;32.50;1.00;;;;;;5116717;27;20451;-78
2021/10/02 10:50:15;;;;;;;2.63;2.20;;;32.90;1.00;;;;;;5117490;27;20443;-78
2021/10/02 10:52:43;;;;;;;2.50;1.80;;;32.90;1.00;;;;;;5114918;27;20578;-78
2021/10/02 10:55:16;;;;;;;2.40;1.77;;;32.10;1.00;;;;;;5122608;27;20472;-77
2021/10/02 10:57:45;;;;;;;3.93;2.63;;;31.10;1.00;;;;;;5118046;27;20503;-78
2021/10/02 11:00:16;;;;;;;4.70;2.27;;;30.20;1.00;;;;;;5117036;27;21191;-79
2021/10/02 11:02:54;;;;;;;5.13;2.70;;;30.60;1.00;;;;;;5118536;27;21254;-78
2021/10/02 11:06:00;;;;;;;2.90;1.97;;;31.40;1.00;;;;;;5116664;27;20516;-79
2021/10/02 11:09:04;;;;;;;3.13;1.83;;;32.60;1.00;;;;;;5113510;27;20438;-77
2021/10/02 11:11:56;;;;;;;3.00;2.33;;;32.20;1.00;;;;;;5114932;27;20575;-77
2021/10/02 11:14:26;;;;;;;4.60;3.53;;;32.70;1.00;;;;;;5112187;27;20508;-77
2021/10/02 11:17:11;;;;;;;2.63;2.10;;;33.60;1.00;;;;;;5122415;27;20454;-79
2021/10/02 11:19:39;;;;;;;4.60;2.20;;;34.00;1.00;;;;;;5111715;27;20451;-78
2021/10/02 11:22:39;;;;;;;3.03;2.13;;;34.20;1.00;;;;;;5123866;27;20489;-77
2021/10/02 11:25:17;;;;;;;4.47;2.70;;;34.20;1.00;;;;;;5124076;27;20563;-78
2021/10/02 11:27:44;;;;;;;2.40;2.20;;;34.40;1.00;;;;;;5121698;27;20447;-79
2021/10/02 11:30:13;;;;;;;2.53;1.93;;;34.40;1.00;;;;;;5118783;27;20552;-78
2021/10/02 11:32:39;;;;;;;3.47;3.07;;;34.80;1.00;;;;;;5119744;27;20424;-76
2021/10/02 11:35:16;;;;;;;4.63;3.20;;;35.00;1.00;;;;;;5111145;27;20464;-79
2021/10/02 11:37:45;;;;;;;3.63;2.03;;;35.60;1.00;;;;;;5108593;27;20432;-78
2021/10/02 11:41:00;;;;;;;2.63;1.97;;;35.30;1.00;;;;;;5104719;27;20429;-77
2021/10/02 11:43:31;;;;;;;3.13;2.17;;;34.80;1.00;;;;;;5111341;27;20523;-77
2021/10/02 11:46:04;;;;;;;2.20;1.70;;;35.20;1.00;;;;;;5105133;27;20474;-79
2021/10/02 11:48:43;;;;;;;3.87;2.23;;;35.40;1.00;;;;;;5110801;27;21179;-78
2021/10/02 11:51:16;;;;;;;4.03;1.70;;;34.50;1.00;;;;;;5111139;27;20970;-79
2021/10/02 11:53:45;;;;;;;2.80;1.77;;;34.30;1.00;;;;;;5117517;27;20581;-80
2021/10/02 11:56:13;;;;;;;4.17;2.03;;;33.90;1.00;;;;;;5114402;27;20529;-78
2021/10/02 11:58:43;;;;;;;3.17;2.33;;;33.40;1.00;;;;;;5115866;27;20447;-79
2021/10/02 12:01:18;;;;;;;2.50;2.17;;;33.00;1.00;;;;;;5117527;27;20419;-79
2021/10/02 12:03:45;;;;;;;4.37;2.80;;;33.30;1.00;;;;;;5115557;27;20564;-79
2021/10/02 12:06:12;;;;;;;4.17;2.43;;;33.00;1.00;;;;;;5115449;27;20564;-80
2021/10/02 12:08:39;;;;;;;3.90;2.40;;;32.60;1.00;;;;;;5117888;27;23061;-79
2021/10/02 12:11:09;;;;;;;2.73;2.17;;;31.90;1.00;;;;;;5117369;27;20442;-80
2021/10/02 12:13:38;;;;;;;3.43;2.50;;;32.00;1.00;;;;;;5117861;27;20462;-78
2021/10/02 12:16:08;;;;;;;3.30;2.00;;;32.40;1.00;;;;;;5123313;27;20439;-78
2021/10/02 12:18:55;;;;;;;2.57;2.00;;;32.60;1.00;;;;;;5106667;27;20941;-79
2021/10/02 12:21:40;;;;;;;2.10;1.57;;;31.50;1.00;;;;;;5116019;27;20469;-79
2021/10/02 12:24:17;;;;;;;4.30;2.00;;;30.20;1.00;;;;;;5119166;27;20528;-79
2021/10/02 12:26:51;;;;;;;4.47;2.00;;;29.20;1.00;;;;;;5119067;27;21134;-79
2021/10/02 12:29:20;;;;;;;2.70;1.57;;;28.90;1.00;;;;;;5131197;27;20580;-79
2021/10/02 12:31:55;;;;;;;2.63;1.80;;;28.80;1.00;;;;;;5128819;27;20669;-78
2021/10/02 12:34:24;;;;;;;4.60;2.00;;;28.50;1.00;;;;;;5118709;27;20640;-78
2021/10/02 12:36:53;;;;;;;3.33;1.90;;;27.70;1.00;;;;;;5115782;27;20438;-79
2021/10/02 12:39:27;;;;;;;2.30;1.90;;;27.20;1.00;;;;;;5117076;27;21243;-79
2021/10/02 12:41:54;;;;;;;2.57;1.50;;;26.50;1.00;;;;;;5114081;27;21185;-79
2021/10/02 12:44:25;;;;;;;3.00;1.90;;;25.80;1.00;;;;;;5115400;27;20495;-79
2021/10/02 12:46:55;;;;;;;5.83;2.20;;;25.70;1.00;;;;;;5107771;27;20454;-80
2021/10/02 12:49:24;;;;;;;2.50;1.63;;;25.80;1.00;;;;;;5115063;27;21173;-79
2021/10/02 12:51:52;;;;;;;2.63;1.73;;;25.80;1.00;;;;;;5117766;27;20438;-79
2021/10/02 12:54:23;;;;;;;4.53;2.33;;;25.30;1.00;;;;;;5114179;27;20472;-79
2021/10/02 12:57:07;;;;;;;2.80;1.80;;;25.10;1.00;;;;;;5114948;27;20452;-79
2021/10/02 12:59:43;;;;;;;2.47;1.80;;;24.90;1.00;;;;;;5117783;27;20468;-79
2021/10/02 13:02:12;;;;;;;4.70;2.40;;;24.40;1.00;;;;;;5115670;27;20476;-79
2021/10/02 13:04:39;;;;;;;5.23;2.13;;;24.10;1.00;;;;;;5122105;27;20427;-79
2021/10/02 13:07:07;;;;;;;3.10;1.97;;;23.90;1.00;;;;;;5119786;27;20455;-79
2021/10/02 13:09:55;;;;;;;3.13;2.33;;;23.70;1.00;;;;;;5125173;27;20454;-79
2021/10/02 13:12:27;;;;;;;5.70;2.20;;;23.60;1.00;;;;;;5115994;27;21637;-78
2021/10/02 13:14:55;;;;;;;3.57;2.63;;;23.40;1.00;;;;;;5112400;27;22099;-79
2021/10/02 13:17:24;;;;;;;3.00;2.03;;;23.30;1.00;;;;;;5116863;27;20561;-79
2021/10/02 13:20:11;;;;;;;2.50;1.83;;;23.30;1.00;;;;;;5117959;27;20482;-79
2021/10/02 13:22:40;;;;;;;2.80;2.50;;;23.30;1.00;;;;;;5117976;27;20468;-77
2021/10/02 13:25:10;;;;;;;4.77;2.40;;;23.10;1.00;;;;;;5119272;27;20561;-77
2021/10/02 13:27:39;;;;;;;5.80;2.83;;;22.70;1.00;;;;;;5127437;27;21735;-79
2021/10/02 13:30:09;;;;;;;2.27;1.97;;;22.50;1.00;;;;;;5124132;27;20466;-79
2021/10/02 13:32:38;;;;;;;3.93;3.07;;;22.20;1.00;;;;;;5125014;27;20564;-79
2021/10/02 13:35:07;;;;;;;3.67;2.30;;;22.10;1.00;;;;;;5135838;27;20460;-79
2021/10/02 13:37:34;;;;;;;5.60;2.77;;;22.10;1.00;;;;;;5116643;27;20446;-79
2021/10/02 13:40:04;;;;;;;3.80;2.33;;;22.00;1.00;;;;;;5116197;27;20464;-78
2021/10/02 13:42:31;;;;;;;3.10;2.10;;;22.10;1.00;;;;;;5115824;27;20448;-78
2021/10/02 13:44:59;;;;;;;4.50;2.40;;;22.00;1.00;;;;;;5121706;27;20405;-78
2021/10/02 13:47:27;;;;;;;2.90;2.10;;;21.80;1.00;;;;;;5119080;27;21070;-78
2021/10/02 13:49:55;;;;;;;4.07;2.07;;;21.80;1.00;;;;;;5116447;27;20455;-78
2021/10/02 13:52:23;;;;;;;5.57;2.63;;;21.80;1.00;;;;;;5116826;27;21965;-79
2021/10/02 13:54:50;;;;;;;3.17;2.43;;;21.90;1.00;;;;;;5119030;27;20830;-79
2021/10/02 13:57:17;;;;;;;3.20;2.43;;;22.10;1.00;;;;;;5116275;27;20484;-77